x

Nw Lake Ontario Ajax (45159) Wave Buoy

3:00pm - Mon 20th Oct 2014 All times are CDT. -5 hours from GMT.

  • Sig Wave height 1.3ft
  • Peak Period 4s
  • Wind
    9mph, 11mph gusts
  • Sea Temp 50°f
  • Air Temp 51°f
  • Sea Pressure 1009.2mb
  • Nw Lake Ontario Ajax
  • Nw Lake Ontario Ajax

More Historic Weather Station data

Upgrade to MSW Pro to gain access to the past 30 days of data for over 8000 Wavebouys and Weather Stations around the globe.

Join Pro

Comparision Forecast

View Surf forecast
   
Mon 10/20 3:00pm 1.3ft 4s 9 11 mph 1009.2mb 50f 51f
2:00pm 1.6ft 4s 11 13 mph 1009.2mb 50f 52f
1:00pm 1ft 4s 4 9 mph 1009.9mb 50f 51f
12:00pm 1ft 3s 4 7 mph 1010.4mb 50f 51f
11:00am 1ft 3s 7
mph
1011.3mb 50f 50f
10:00am 1ft 3s 7
mph
1012mb 49f 49f
9:00am 0.7ft 3s 2 4 mph 1012.5mb 49f 47f
8:00am 0.3ft 2s 2
mph
1013.3mb 49f 46f
7:00am 0.3ft 3s 4 9 mph 1013.4mb 49f 49f
6:00am 0.3ft 3s 7 9 mph 1013.1mb 49f 49f
5:00am 0.7ft 3s 9
mph
1013.3mb 49f 48f
4:00am 0.7ft 3s 7
mph
1013.9mb 49f 47f
3:00am 0.7ft 3s 4 7 mph 1014.5mb 49f 47f
2:00am 1ft 4s 2 4 mph 1015.5mb 49f 45f
1:00am 1ft 4s 2
mph
1015.8mb 49f 45f
12:00am 0.7ft 3s 2 4 mph 1015.9mb 49f 46f
Sun 10/19 10:00pm 0.7ft 3s 7 9 mph 1016.3mb 48f 47f
9:00pm 1ft 3s 9 11 mph 1016.6mb 48f 48f
8:00pm 1.3ft 3s 11 13 mph 1016.9mb 48f 48f
7:00pm 1.3ft 3s 13 16 mph 1017.2mb 48f 48f
6:00pm 1.6ft 3s 13
mph
1017.4mb 48f 48f
5:00pm 1.6ft 3s 11 13 mph 1017.9mb 49f 47f
4:00pm 1.3ft 3s 16 18 mph 1018mb 49f 46f
3:00pm 1ft 2s 16 18 mph 1018.4mb 49f 45f
2:00pm 0.3ft 2s 16 18 mph 1018.8mb 49f 44f
1:00pm 0.3ft 2s 9 13 mph 1019.2mb 50f 44f
12:00pm 0.3ft 2s 11 13 mph 1019.7mb 51f 43f
11:00am 0.7ft 2s 13 16 mph 1020.2mb 52f 42f
10:00am 0.7ft 2s 11 16 mph 1020.4mb 52f 41f
9:00am 0.3ft 2s 11 16 mph 1020.6mb 52f 41f
8:00am 0.3ft 2s 9 13 mph 1020.3mb 52f 40f
7:00am 0.7ft 2s 9 16 mph 1019.5mb 52f 40f
6:00am 0.7ft 2s 11 13 mph 1019.1mb 52f 40f
5:00am 0.7ft 2s 16 20 mph 1018.4mb 52f 40f
4:00am 0.3ft 2s 11 18 mph 1017.7mb 52f 41f
3:00am 0.7ft 2s 13 18 mph 1017.1mb 52f 40f
2:00am 0.3ft 2s 11 16 mph 1016.9mb 52f 41f
1:00am 0.7ft 2s 9 13 mph 1016.4mb 52f 41f
12:00am 0.7ft 2s 11 13 mph 1016mb 52f 42f
Sat 10/18 11:00pm 1ft 2s 16 22 mph 1015.5mb 52f 42f
10:00pm 1ft 2s 20 25 mph 1014.7mb 52f 43f
9:00pm 1ft 2s 18 22 mph 1014mb 52f 44f
8:00pm 1ft 2s 18 25 mph 1013.2mb 52f 45f
7:00pm 1.3ft 3s 22 29 mph 1012.3mb 52f 46f
6:00pm 1.3ft 3s 22 27 mph 1011.3mb 52f 47f
5:00pm 1.3ft 2s 20 25 mph 1010.1mb 51f 48f
4:00pm 1.3ft 2s 18 27 mph 1009.2mb 52f 48f
3:00pm 1.3ft 2s 20 25 mph 1008.3mb 52f 48f
2:00pm 1.3ft 4s 18 25 mph 1007.3mb 52f 49f
1:00pm 1ft 2s 18 22 mph 1006.4mb 52f 49f
12:00pm 1.3ft 2s 18 22 mph 1005.3mb 53f 50f
11:00am 1.3ft 3s 16 20 mph 1004.5mb 53f 52f
10:00am 1.3ft 3s 18 22 mph 1003.5mb 53f 51f
9:00am 1.3ft 4s 20 25 mph 1002.7mb 54f 52f
8:00am 1.3ft 4s 18 22 mph 1001.9mb 54f 52f
7:00am 1.3ft 4s 18 22 mph 1001mb 54f 53f
6:00am 1.3ft 4s 11 13 mph 1000.3mb 54f 53f
5:00am 1.6ft 4s 11 13 mph 999.5mb 54f 52f
4:00am 1.6ft 4s 9 11 mph 998.9mb 53f 54f
3:00am 1.6ft 4s 11 13 mph 998.5mb 53f 53f
2:00am 1.3ft 3s 13 16 mph 998.4mb 53f 53f
1:00am 1.3ft 4s 13 16 mph 998.6mb 53f 54f
12:00am 1.3ft 4s 13 16 mph 998.3mb 53f 54f
Fri 10/17 11:00pm 1.3ft 4s 16 18 mph 998mb 53f 54f
10:00pm 1.6ft 4s 11
mph
998.3mb 53f 54f
9:00pm 1.6ft 4s 13
mph
998.4mb 53f 53f
8:00pm 1.6ft 4s 13 16 mph 998.5mb 53f 53f
7:00pm 1.6ft 4s 11 13 mph 998.6mb 53f 53f
6:00pm 1.6ft 4s 13 16 mph 998.7mb 53f 55f
5:00pm 2ft 4s 13
mph
999mb 52f 55f
4:00pm 2.5ft 4s 13 16 mph 999mb 52f 55f
3:00pm 2ft 4s 20 25 mph 998.8mb 51f 56f
2:00pm 1.3ft 4s 22 27 mph 998.7mb 51f 55f
1:00pm 1.6ft 4s 11 13 mph 999.4mb 51f 54f
12:00pm 1.6ft 3s 16 18 mph 999.8mb 50f 53f
11:00am 1.3ft 3s 18 22 mph 1000.3mb 50f 53f
10:00am 1ft 3s 13 16 mph 1001mb 50f 53f
9:00am 1ft 3s 13 16 mph 1001.2mb 50f 53f
8:00am 1ft 3s 11 13 mph 1001.2mb 50f 52f
7:00am 1ft 3s 13
mph
1001.5mb 50f 52f
6:00am 1.3ft 4s 11 13 mph 1001.8mb 49f 51f
5:00am 1.3ft 4s 7 9 mph 1002mb 49f 50f
4:00am 1.3ft 3s 7 9 mph 1002.3mb 49f 50f
3:00am 1ft 3s 16 18 mph 1002.3mb 49f 51f
2:00am 1ft 3s 11 13 mph 1002.9mb 49f 50f
1:00am 1ft 4s 11 13 mph 1003.2mb 49f 50f
12:00am 1ft 4s 13 16 mph 1003.2mb 48f 51f
Thu 10/16 11:00pm 1ft 4s 11 13 mph 1003mb 48f 52f
10:00pm 1ft 4s 11 13 mph 1002.7mb 48f 52f